Hauptseite
METAR-TAF:

METAR-TAF

Flughäfen :

Bohrplattform

Hoorn-a, Niederlande

Breite: 52-55-05N, Länge: 4-09-01E, Höhe: 41 m

Beobachtung

Neuester Wetterbericht von vor 35 Minuten, um 04:25 UTC
Wind 25 kt aus Süd/Südost
Temperatur 9°C
Luftfeuchtigkeit 76%
Luftdruck 1009 hPa
Sichtweite 10 km oder mehr
Leicht bewölkt in der Höhe von 1400 ft
Aufgelockert bewölkt in der Höhe von 1700 ft
Durchbrochene Bewölkung in der Höhe von 2000 ft
Sprühregen leicht

METAR: EHQE 170425Z AUTO 16025KT 9999 -DZ FEW014 SCT017 BKN020 09/05 Q1009 W///H///

Zeit: 06:00 (05:00 UTC)


TAF: fehlend

Wetterbeobachtungen und Prognosen von mehr als 4000 Flughäfen (METAR und TAF Bericht).

Die verfügbaren Stationen werden durch gelbe und rote Markierungen auf der Karte dargestellt.

Führen Sie die Maus auf sie, um den Namen der Station zu sehen.

Darauf klicken, um die Beobachtung von Wetterbeobachtungen und Prognosen zu sehen.

Um die Karte zu ändern : klicken Sie auf den grünen Tasten mit einem schwarzen Kreuz Zum Vergrößern, auf den grünen Button mit einem Gedankenstrich zu verkleinern, oder auf die grünen Pfeile für benachbarte Karten.


METAR-TAF: